Time,TemperatureF,DewpointF,PressureIn,WindDirection,WindDirectionDegrees,WindSpeedMPH,WindSpeedGustMPH,Humidity,HourlyPrecipIn,Conditions,Clouds,dailyrainin,SoftwareType,DateUTC
2013-02-22 00:00:00,48.0,38.3,30.23,ESE,105,15.0,21.0,69,0.00,,---,0.00,VWS V14.01,2013-02-22 05:00:00,
2013-02-22 00:01:00,48.0,38.0,30.23,ESE,111,14.0,21.0,68,0.00,,---,0.00,VWS V14.01,2013-02-22 05:01:00,
2013-02-22 00:06:00,48.0,38.7,30.23,ESE,120,13.0,21.0,70,0.00,,---,0.00,VWS V14.01,2013-02-22 05:06:00,
2013-02-22 00:11:00,47.9,37.9,30.23,East,86,9.0,21.0,68,0.00,,---,0.00,VWS V14.01,2013-02-22 05:11:00,
2013-02-22 00:16:00,48.0,38.3,30.24,ESE,120,13.0,21.0,69,0.00,,---,0.00,VWS V14.01,2013-02-22 05:16:00,
2013-02-22 00:21:00,48.0,38.3,30.24,East,94,10.0,21.0,69,0.00,,---,0.00,VWS V14.01,2013-02-22 05:21:00,
2013-02-22 00:26:00,48.0,38.7,30.24,East,90,9.0,21.0,70,0.00,,---,0.00,VWS V14.01,2013-02-22 05:26:00,
2013-02-22 00:31:00,48.0,38.3,30.24,ESE,111,15.0,17.0,69,0.00,,---,0.00,VWS V14.01,2013-02-22 05:31:00,
2013-02-22 00:36:00,48.0,38.3,30.24,East,82,10.0,19.0,69,0.00,,---,0.00,VWS V14.01,2013-02-22 05:36:00,
2013-02-22 00:41:00,48.0,38.7,30.24,East,95,11.0,19.0,70,0.00,,---,0.00,VWS V14.01,2013-02-22 05:41:00,
2013-02-22 00:46:00,47.7,39.1,30.25,East,97,5.0,19.0,72,0.00,,---,0.00,VWS V14.01,2013-02-22 05:46:00,
2013-02-22 00:51:00,47.3,39.1,30.24,ENE,62,5.0,19.0,73,0.00,,---,0.00,VWS V14.01,2013-02-22 05:51:00,
2013-02-22 00:56:00,46.7,38.9,30.22,East,97,10.0,19.0,74,0.00,,---,0.00,VWS V14.01,2013-02-22 05:56:00,
2013-02-22 01:01:00,46.6,38.8,30.22,ESE,108,12.0,19.0,74,0.00,,---,0.00,VWS V14.01,2013-02-22 06:01:00,
2013-02-22 01:06:00,46.9,36.9,30.22,ESE,112,11.0,22.0,68,0.00,,---,0.00,VWS V14.01,2013-02-22 06:06:00,
2013-02-22 01:11:00,47.2,37.2,30.22,ESE,103,15.0,23.0,68,0.00,,---,0.00,VWS V14.01,2013-02-22 06:11:00,
2013-02-22 01:16:00,47.1,37.1,30.22,East,101,13.0,24.0,68,0.00,,---,0.00,VWS V14.01,2013-02-22 06:16:00,
2013-02-22 01:21:00,47.0,37.4,30.22,East,82,15.0,24.0,69,0.00,,---,0.00,VWS V14.01,2013-02-22 06:21:00,
2013-02-22 01:26:00,46.8,37.5,30.23,East,92,15.0,24.0,70,0.00,,---,0.00,VWS V14.01,2013-02-22 06:26:00,
2013-02-22 01:31:00,46.8,37.2,30.23,ESE,110,22.0,23.0,69,0.00,,---,0.00,VWS V14.01,2013-02-22 06:31:00,
2013-02-22 01:36:00,46.9,37.6,30.23,East,88,15.0,23.0,70,0.00,,---,0.00,VWS V14.01,2013-02-22 06:36:00,
2013-02-22 01:41:00,46.8,38.3,30.23,East,82,19.0,23.0,72,0.00,,---,0.00,VWS V14.01,2013-02-22 06:41:00,
2013-02-22 01:46:00,46.6,37.7,30.24,ENE,67,14.0,23.0,71,0.00,,---,0.00,VWS V14.01,2013-02-22 06:46:00,
2013-02-22 01:51:00,46.4,37.9,30.25,East,83,10.0,23.0,72,0.00,,---,0.00,VWS V14.01,2013-02-22 06:51:00,
2013-02-22 01:56:00,46.0,38.2,30.25,NE,45,10.0,23.0,74,0.00,,---,0.00,VWS V14.01,2013-02-22 06:56:00,
2013-02-22 02:01:00,45.7,38.6,30.26,NE,51,10.0,15.0,76,0.00,,---,0.00,VWS V14.01,2013-02-22 07:01:00,
2013-02-22 02:06:00,45.6,38.5,30.25,NE,55,7.0,16.0,76,0.00,,---,0.00,VWS V14.01,2013-02-22 07:06:00,
2013-02-22 02:11:00,45.3,38.2,30.27,NE,47,9.0,18.0,76,0.00,,---,0.00,VWS V14.01,2013-02-22 07:11:00,
2013-02-22 02:16:00,45.0,37.9,30.27,NE,48,15.0,18.0,76,0.00,,---,0.00,VWS V14.01,2013-02-22 07:16:00,
2013-02-22 02:21:00,44.8,37.4,30.26,NE,51,14.0,18.0,75,0.00,,---,0.00,VWS V14.01,2013-02-22 07:21:00,
2013-02-22 02:26:00,44.6,36.8,30.26,NE,48,13.0,18.0,74,0.00,,---,0.00,VWS V14.01,2013-02-22 07:26:00,
2013-02-22 02:31:00,44.4,36.3,30.26,ENE,71,9.0,17.0,73,0.00,,---,0.00,VWS V14.01,2013-02-22 07:31:00,
2013-02-22 02:36:00,44.4,36.3,30.26,NE,51,5.0,17.0,73,0.00,,---,0.00,VWS V14.01,2013-02-22 07:36:00,
2013-02-22 02:41:00,44.2,36.1,30.26,ENE,58,13.0,17.0,73,0.00,,---,0.00,VWS V14.01,2013-02-22 07:41:00,
2013-02-22 02:46:00,44.1,35.7,30.26,ENE,77,9.0,18.0,72,0.00,,---,0.00,VWS V14.01,2013-02-22 07:46:00,
2013-02-22 02:51:00,43.9,35.8,30.26,East,98,12.0,18.0,73,0.00,,---,0.00,VWS V14.01,2013-02-22 07:51:00,
2013-02-22 02:56:00,43.7,35.3,30.26,East,94,10.0,18.0,72,0.00,,---,0.00,VWS V14.01,2013-02-22 07:56:00,
2013-02-22 03:01:00,43.6,35.2,30.26,East,86,10.0,16.0,72,0.00,,---,0.00,VWS V14.01,2013-02-22 08:01:00,
2013-02-22 03:06:00,43.4,34.3,30.26,NE,53,12.0,18.0,70,0.00,,---,0.00,VWS V14.01,2013-02-22 08:06:00,
2013-02-22 03:11:00,43.3,33.5,30.25,ENE,71,12.0,19.0,68,0.00,,---,0.00,VWS V14.01,2013-02-22 08:11:00,
2013-02-22 03:16:00,43.3,33.5,30.27,ENE,58,10.0,19.0,68,0.00,,---,0.00,VWS V14.01,2013-02-22 08:16:00,
2013-02-22 03:21:00,43.3,33.5,30.27,East,85,12.0,19.0,68,0.00,,---,0.00,VWS V14.01,2013-02-22 08:21:00,
2013-02-22 03:26:00,43.3,32.3,30.28,ENE,61,11.0,19.0,65,0.00,,---,0.00,VWS V14.01,2013-02-22 08:26:00,
2013-02-22 03:32:00,43.4,32.4,30.28,East,82,11.0,17.0,65,0.00,,---,0.00,VWS V14.01,2013-02-22 08:32:00,
2013-02-22 03:37:00,43.4,31.7,30.28,East,82,7.0,17.0,63,0.00,,---,0.00,VWS V14.01,2013-02-22 08:37:00,
2013-02-22 03:42:00,43.3,31.6,30.28,East,80,8.0,17.0,63,0.00,,---,0.00,VWS V14.01,2013-02-22 08:42:00,
2013-02-22 03:47:00,43.2,31.1,30.27,ENE,71,10.0,18.0,62,0.00,,---,0.00,VWS V14.01,2013-02-22 08:47:00,
2013-02-22 03:52:00,43.2,31.5,30.28,ENE,59,11.0,18.0,63,0.00,,---,0.00,VWS V14.01,2013-02-22 08:52:00,
2013-02-22 03:57:00,43.2,31.1,30.28,ENE,69,10.0,18.0,62,0.00,,---,0.00,VWS V14.01,2013-02-22 08:57:00,
2013-02-22 04:02:00,43.1,31.4,30.27,ENE,64,14.0,16.0,63,0.00,,---,0.00,VWS V14.01,2013-02-22 09:02:00,
2013-02-22 04:07:00,43.0,30.5,30.28,ENE,58,11.0,18.0,61,0.00,,---,0.00,VWS V14.01,2013-02-22 09:07:00,
2013-02-22 04:12:00,43.0,30.5,30.28,East,80,13.0,19.0,61,0.00,,---,0.00,VWS V14.01,2013-02-22 09:12:00,
2013-02-22 04:17:00,43.0,30.9,30.29,East,79,13.0,19.0,62,0.00,,---,0.00,VWS V14.01,2013-02-22 09:17:00,
2013-02-22 04:22:00,43.0,31.3,30.29,ENE,59,12.0,19.0,63,0.00,,---,0.00,VWS V14.01,2013-02-22 09:22:00,
2013-02-22 04:27:00,43.4,32.8,30.30,ENE,74,11.0,19.0,66,0.00,,---,0.00,VWS V14.01,2013-02-22 09:27:00,
2013-02-22 04:32:00,43.2,31.5,30.29,ENE,78,12.0,17.0,63,0.00,,---,0.00,VWS V14.01,2013-02-22 09:32:00,
2013-02-22 04:37:00,42.8,30.3,30.30,East,86,13.0,17.0,61,0.00,,---,0.00,VWS V14.01,2013-02-22 09:37:00,
2013-02-22 04:42:00,42.5,29.6,30.30,East,84,11.0,17.0,60,0.00,,---,0.00,VWS V14.01,2013-02-22 09:42:00,
2013-02-22 04:47:00,42.4,30.3,30.29,ENE,76,13.0,17.0,62,0.00,,---,0.00,VWS V14.01,2013-02-22 09:47:00,
2013-02-22 04:52:00,42.4,30.7,30.30,ENE,63,7.0,17.0,63,0.00,,---,0.00,VWS V14.01,2013-02-22 09:52:00,
2013-02-22 04:57:00,42.3,30.6,30.30,ENE,60,11.0,17.0,63,0.00,,---,0.00,VWS V14.01,2013-02-22 09:57:00,
2013-02-22 05:02:00,42.3,30.6,30.30,ENE,76,9.0,13.0,63,0.00,,---,0.00,VWS V14.01,2013-02-22 10:02:00,
2013-02-22 05:07:00,42.2,30.5,30.29,ENE,74,12.0,14.0,63,0.00,,---,0.00,VWS V14.01,2013-02-22 10:07:00,
2013-02-22 05:12:00,42.2,30.5,30.29,ENE,77,11.0,15.0,63,0.00,,---,0.00,VWS V14.01,2013-02-22 10:12:00,
2013-02-22 05:17:00,42.2,30.5,30.30,ENE,66,10.0,17.0,63,0.00,,---,0.00,VWS V14.01,2013-02-22 10:17:00,
2013-02-22 05:22:00,42.0,29.5,30.29,East,88,14.0,17.0,61,0.00,,---,0.00,VWS V14.01,2013-02-22 10:22:00,
2013-02-22 05:27:00,41.9,29.5,30.29,East,83,11.0,18.0,61,0.00,,---,0.00,VWS V14.01,2013-02-22 10:27:00,
2013-02-22 05:32:00,41.8,29.4,30.29,ENE,75,10.0,16.0,61,0.00,,---,0.00,VWS V14.01,2013-02-22 10:32:00,
2013-02-22 05:37:00,41.8,29.8,30.28,East,84,12.0,18.0,62,0.00,,---,0.00,VWS V14.01,2013-02-22 10:37:00,
2013-02-22 05:43:00,41.8,29.8,30.29,East,94,12.0,18.0,62,0.00,,---,0.00,VWS V14.01,2013-02-22 10:43:00,
2013-02-22 05:48:00,41.8,30.1,30.30,ENE,60,12.0,18.0,63,0.00,,---,0.00,VWS V14.01,2013-02-22 10:48:00,
2013-02-22 05:53:00,41.8,30.5,30.30,ENE,58,8.0,18.0,64,0.00,,---,0.00,VWS V14.01,2013-02-22 10:53:00,
2013-02-22 05:58:00,41.6,30.3,30.30,ENE,78,11.0,12.0,64,0.00,,---,0.00,VWS V14.01,2013-02-22 10:58:00,
2013-02-22 06:03:00,41.6,30.3,30.31,ESE,105,9.0,14.0,64,0.00,,---,0.00,VWS V14.01,2013-02-22 11:03:00,
2013-02-22 06:08:00,41.5,29.9,30.31,East,83,7.0,14.0,63,0.00,,---,0.00,VWS V14.01,2013-02-22 11:08:00,
2013-02-22 06:13:00,41.5,30.2,30.31,East,84,7.0,14.0,64,0.00,,---,0.00,VWS V14.01,2013-02-22 11:13:00,
2013-02-22 06:18:00,41.5,30.2,30.32,ESE,117,4.0,14.0,64,0.00,,---,0.00,VWS V14.01,2013-02-22 11:18:00,
2013-02-22 06:23:00,41.4,29.8,30.31,ENE,76,11.0,14.0,63,0.00,,---,0.00,VWS V14.01,2013-02-22 11:23:00,
2013-02-22 06:28:00,41.4,29.8,30.31,East,90,11.0,11.0,63,0.00,,---,0.00,VWS V14.01,2013-02-22 11:28:00,
2013-02-22 06:33:00,41.4,29.8,30.32,East,88,9.0,12.0,63,0.00,,---,0.00,VWS V14.01,2013-02-22 11:33:00,
2013-02-22 06:38:00,41.4,29.4,30.31,ENE,77,5.0,14.0,62,0.00,,---,0.00,VWS V14.01,2013-02-22 11:38:00,
2013-02-22 06:43:00,41.5,29.9,30.31,ESE,103,6.0,14.0,63,0.00,,---,0.00,VWS V14.01,2013-02-22 11:43:00,
2013-02-22 06:48:00,41.4,29.8,30.30,ENE,74,13.0,14.0,63,0.00,,---,0.00,VWS V14.01,2013-02-22 11:48:00,
2013-02-22 06:53:00,41.3,30.1,30.29,East,94,17.0,17.0,64,0.00,,---,0.00,VWS V14.01,2013-02-22 11:53:00,
2013-02-22 06:58:00,41.4,29.4,30.29,East,97,13.0,13.0,62,0.00,,---,0.00,VWS V14.01,2013-02-22 11:58:00,
2013-02-22 07:03:00,41.6,29.6,30.28,ESE,105,14.0,19.0,62,0.00,,---,0.00,VWS V14.01,2013-02-22 12:03:00,
2013-02-22 07:08:00,41.6,30.0,30.28,East,96,13.0,19.0,63,0.00,,---,0.00,VWS V14.01,2013-02-22 12:08:00,
2013-02-22 07:13:00,41.7,30.8,30.29,East,99,14.0,19.0,65,0.00,,---,0.00,VWS V14.01,2013-02-22 12:13:00,
2013-02-22 07:18:00,41.9,31.4,30.28,SE,125,13.0,19.0,66,0.00,,---,0.00,VWS V14.01,2013-02-22 12:18:00,
2013-02-22 07:23:00,42.1,32.0,30.28,East,101,10.0,24.0,67,0.00,,---,0.00,VWS V14.01,2013-02-22 12:23:00,
2013-02-22 07:28:00,42.2,32.4,30.30,ESE,113,16.0,16.0,68,0.00,,---,0.00,VWS V14.01,2013-02-22 12:28:00,
2013-02-22 07:33:00,42.3,32.9,30.28,ESE,113,14.0,20.0,69,0.00,,---,0.00,VWS V14.01,2013-02-22 12:33:00,
2013-02-22 07:38:00,42.4,33.3,30.27,East,99,19.0,22.0,70,0.00,,---,0.00,VWS V14.01,2013-02-22 12:38:00,
2013-02-22 07:43:00,42.7,33.2,30.28,ESE,103,20.0,22.0,69,0.00,,---,0.00,VWS V14.01,2013-02-22 12:43:00,
2013-02-22 07:48:00,42.9,33.1,30.28,ESE,104,18.0,22.0,68,0.00,,---,0.00,VWS V14.01,2013-02-22 12:48:00,
2013-02-22 07:53:00,43.1,34.0,30.29,ESE,112,15.0,23.0,70,0.00,,---,0.00,VWS V14.01,2013-02-22 12:53:00,
2013-02-22 07:58:00,43.1,33.3,30.27,East,90,20.0,20.0,68,0.00,,---,0.00,VWS V14.01,2013-02-22 12:58:00,
2013-02-22 08:04:00,43.3,33.8,30.27,East,83,15.0,21.0,69,0.00,,---,0.00,VWS V14.01,2013-02-22 13:04:00,
2013-02-22 08:09:00,43.4,34.3,30.28,SE,127,16.0,22.0,70,0.00,,---,0.00,VWS V14.01,2013-02-22 13:09:00,
2013-02-22 08:14:00,43.5,34.4,30.29,East,101,9.0,23.0,70,0.00,,---,0.00,VWS V14.01,2013-02-22 13:14:00,
2013-02-22 08:19:00,43.6,34.5,30.28,ESE,102,16.0,23.0,70,0.00,,---,0.00,VWS V14.01,2013-02-22 13:19:00,
2013-02-22 08:24:00,43.8,35.4,30.28,ESE,105,12.0,23.0,72,0.00,,---,0.00,VWS V14.01,2013-02-22 13:24:00,
2013-02-22 08:29:00,44.0,35.6,30.28,ESE,112,12.0,15.0,72,0.00,,---,0.00,VWS V14.01,2013-02-22 13:29:00,
2013-02-22 08:34:00,44.0,35.2,30.29,SE,130,11.0,22.0,71,0.00,,---,0.00,VWS V14.01,2013-02-22 13:34:00,
2013-02-22 08:39:00,44.2,36.1,30.29,SE,140,13.0,22.0,73,0.00,,---,0.00,VWS V14.01,2013-02-22 13:39:00,
2013-02-22 08:44:00,44.3,36.2,30.28,ESE,108,14.0,22.0,73,0.00,,---,0.00,VWS V14.01,2013-02-22 13:44:00,
2013-02-22 08:49:00,44.4,36.3,30.29,ESE,115,15.0,22.0,73,0.00,,---,0.00,VWS V14.01,2013-02-22 13:49:00,
2013-02-22 08:54:00,44.6,36.8,30.29,ESE,109,15.0,22.0,74,0.00,,---,0.00,VWS V14.01,2013-02-22 13:54:00,
2013-02-22 08:59:00,44.6,36.5,30.29,ESE,115,14.0,20.0,73,0.00,,---,0.00,VWS V14.01,2013-02-22 13:59:00,
2013-02-22 09:04:00,44.6,36.5,30.30,ESE,107,11.0,20.0,73,0.00,,---,0.00,VWS V14.01,2013-02-22 14:04:00,
2013-02-22 09:09:00,44.6,36.5,30.29,East,101,16.0,20.0,73,0.00,,---,0.00,VWS V14.01,2013-02-22 14:09:00,
2013-02-22 09:14:00,44.6,37.2,30.28,East,95,20.0,23.0,75,0.00,,---,0.00,VWS V14.01,2013-02-22 14:14:00,
2013-02-22 09:19:00,44.6,37.2,30.28,ESE,112,11.0,23.0,75,0.00,,---,0.00,VWS V14.01,2013-02-22 14:19:00,
2013-02-22 09:24:00,44.6,37.2,30.29,SE,133,16.0,23.0,75,0.00,,---,0.00,VWS V14.01,2013-02-22 14:24:00,
2013-02-22 09:29:00,44.6,37.2,30.28,East,98,14.0,18.0,75,0.00,,---,0.00,VWS V14.01,2013-02-22 14:29:00,
2013-02-22 09:34:00,44.7,37.6,30.29,ESE,114,20.0,22.0,76,0.00,,---,0.00,VWS V14.01,2013-02-22 14:34:00,
2013-02-22 09:39:00,44.7,37.6,30.30,ESE,118,10.0,22.0,76,0.00,,---,0.00,VWS V14.01,2013-02-22 14:39:00,
2013-02-22 09:44:00,44.8,37.7,30.28,ESE,112,16.0,23.0,76,0.00,,---,0.00,VWS V14.01,2013-02-22 14:44:00,
2013-02-22 09:49:00,45.0,37.9,30.29,East,96,13.0,23.0,76,0.00,,---,0.00,VWS V14.01,2013-02-22 14:49:00,
2013-02-22 09:54:00,45.2,38.1,30.29,ESE,111,13.0,23.0,76,0.00,,---,0.00,VWS V14.01,2013-02-22 14:54:00,
2013-02-22 09:59:00,45.3,37.9,30.29,ENE,66,9.0,19.0,75,0.00,,---,0.00,VWS V14.01,2013-02-22 14:59:00,
2013-02-22 10:04:00,45.5,38.4,30.30,ESE,103,14.0,19.0,76,0.00,,---,0.00,VWS V14.01,2013-02-22 15:04:00,
2013-02-22 10:09:00,45.9,38.8,30.28,East,98,9.0,20.0,76,0.00,,---,0.00,VWS V14.01,2013-02-22 15:09:00,
2013-02-22 10:14:00,45.9,38.8,30.28,East,92,14.0,22.0,76,0.00,,---,0.00,VWS V14.01,2013-02-22 15:14:00,
2013-02-22 10:19:00,46.2,39.1,30.29,East,99,13.0,22.0,76,0.00,,---,0.00,VWS V14.01,2013-02-22 15:19:00,
2013-02-22 10:24:00,46.3,39.2,30.28,East,100,18.0,22.0,76,0.00,,---,0.00,VWS V14.01,2013-02-22 15:24:00,
2013-02-22 10:29:00,46.4,39.3,30.28,ESE,110,18.0,21.0,76,0.00,,---,0.00,VWS V14.01,2013-02-22 15:29:00,
2013-02-22 10:34:00,46.5,39.4,30.28,ESE,115,18.0,23.0,76,0.00,,---,0.00,VWS V14.01,2013-02-22 15:34:00,
2013-02-22 10:39:00,46.5,39.4,30.28,ESE,110,18.0,23.0,76,0.00,,---,0.00,VWS V14.01,2013-02-22 15:39:00,
2013-02-22 10:44:00,46.5,39.4,30.28,East,99,19.0,23.0,76,0.00,,---,0.00,VWS V14.01,2013-02-22 15:44:00,
2013-02-22 10:49:00,46.6,39.8,30.29,ENE,64,13.0,24.0,77,0.00,,---,0.00,VWS V14.01,2013-02-22 15:49:00,
2013-02-22 10:54:00,46.5,39.4,30.29,ESE,110,21.0,24.0,76,0.00,,---,0.00,VWS V14.01,2013-02-22 15:54:00,
2013-02-22 11:00:00,46.5,39.7,30.27,East,96,6.0,19.0,77,0.00,,---,0.00,VWS V14.01,2013-02-22 16:00:00,
2013-02-22 11:04:00,46.3,39.5,30.27,ESE,109,16.0,27.0,77,0.00,,---,0.00,VWS V14.01,2013-02-22 16:04:00,
2013-02-22 11:09:00,46.3,39.5,30.26,ESE,110,21.0,27.0,77,0.00,,---,0.00,VWS V14.01,2013-02-22 16:09:00,
2013-02-22 11:14:00,46.3,39.8,30.26,East,91,15.0,27.0,78,0.00,,---,0.00,VWS V14.01,2013-02-22 16:14:00,
2013-02-22 11:19:00,46.5,40.0,30.27,ESE,105,11.0,27.0,78,0.00,,---,0.00,VWS V14.01,2013-02-22 16:19:00,
2013-02-22 11:24:00,46.4,39.9,30.27,ESE,107,13.0,27.0,78,0.00,,---,0.00,VWS V14.01,2013-02-22 16:24:00,
2013-02-22 11:29:00,45.9,39.4,30.26,East,92,7.0,18.0,78,0.00,,---,0.00,VWS V14.01,2013-02-22 16:29:00,
2013-02-22 11:34:00,45.8,39.7,30.26,ESE,105,16.0,20.0,79,0.00,,---,0.00,VWS V14.01,2013-02-22 16:34:00,
2013-02-22 11:39:00,45.6,39.5,30.26,ESE,110,16.0,20.0,79,0.00,,---,0.00,VWS V14.01,2013-02-22 16:39:00,
2013-02-22 11:44:00,45.4,39.3,30.26,ESE,117,16.0,20.0,79,0.00,,---,0.00,VWS V14.01,2013-02-22 16:44:00,
2013-02-22 11:49:00,45.4,39.6,30.27,East,93,17.0,20.0,80,0.00,,---,0.00,VWS V14.01,2013-02-22 16:49:00,
2013-02-22 11:54:00,45.6,39.8,30.27,East,97,13.0,20.0,80,0.00,,---,0.00,VWS V14.01,2013-02-22 16:54:00,
2013-02-22 11:59:00,45.9,40.1,30.26,East,88,10.0,17.0,80,0.00,,---,0.00,VWS V14.01,2013-02-22 16:59:00,
2013-02-22 12:04:00,46.0,40.2,30.28,ENE,78,15.0,18.0,80,0.00,,---,0.00,VWS V14.01,2013-02-22 17:04:00,
2013-02-22 12:10:00,46.0,40.2,30.27,East,79,10.0,18.0,80,0.00,,---,0.00,VWS V14.01,2013-02-22 17:10:00,
2013-02-22 12:15:00,45.9,40.1,30.27,ENE,75,13.0,20.0,80,0.00,,---,0.00,VWS V14.01,2013-02-22 17:15:00,
2013-02-22 12:20:00,45.6,39.8,30.26,East,100,7.0,21.0,80,0.00,,---,0.00,VWS V14.01,2013-02-22 17:20:00,
2013-02-22 12:25:00,45.4,39.6,30.25,ESE,103,16.0,21.0,80,0.00,,---,0.00,VWS V14.01,2013-02-22 17:25:00,
2013-02-22 12:30:00,45.4,39.9,30.26,ENE,74,12.0,18.0,81,0.00,,---,0.00,VWS V14.01,2013-02-22 17:30:00,
2013-02-22 12:35:00,45.3,39.8,30.26,ENE,69,14.0,18.0,81,0.00,,---,0.00,VWS V14.01,2013-02-22 17:35:00,
2013-02-22 12:40:00,45.2,39.7,30.26,ENE,69,13.0,19.0,81,0.00,,---,0.00,VWS V14.01,2013-02-22 17:40:00,
2013-02-22 12:45:00,45.2,39.7,30.25,East,92,9.0,19.0,81,0.00,,---,0.00,VWS V14.01,2013-02-22 17:45:00,
2013-02-22 12:50:00,45.2,40.0,30.24,East,86,6.0,19.0,82,0.00,,---,0.00,VWS V14.01,2013-02-22 17:50:00,
2013-02-22 12:55:00,45.2,39.7,30.24,East,82,9.0,22.0,81,0.00,,---,0.00,VWS V14.01,2013-02-22 17:55:00,
2013-02-22 13:00:00,45.1,39.6,30.23,East,84,13.0,18.0,81,0.00,,---,0.00,VWS V14.01,2013-02-22 18:00:00,
2013-02-22 13:05:00,45.1,39.6,30.23,ENE,76,12.0,18.0,81,0.00,,---,0.00,VWS V14.01,2013-02-22 18:05:00,
2013-02-22 13:10:00,45.2,39.7,30.23,East,101,14.0,18.0,81,0.00,,---,0.00,VWS V14.01,2013-02-22 18:10:00,
2013-02-22 13:15:00,45.5,40.0,30.23,ESE,103,13.0,18.0,81,0.00,,---,0.00,VWS V14.01,2013-02-22 18:15:00,
2013-02-22 13:20:00,45.3,39.5,30.23,East,99,14.0,18.0,80,0.00,,---,0.00,VWS V14.01,2013-02-22 18:20:00,
2013-02-22 13:25:00,45.4,39.9,30.22,East,96,11.0,18.0,81,0.00,,---,0.00,VWS V14.01,2013-02-22 18:25:00,
2013-02-22 13:30:00,45.6,40.1,30.22,ESE,116,11.0,17.0,81,0.00,,---,0.00,VWS V14.01,2013-02-22 18:30:00,
2013-02-22 13:35:00,45.6,40.1,30.22,East,100,17.0,20.0,81,0.00,,---,0.00,VWS V14.01,2013-02-22 18:35:00,
2013-02-22 13:40:00,45.9,40.7,30.20,East,87,11.0,21.0,82,0.00,,---,0.00,VWS V14.01,2013-02-22 18:40:00,
2013-02-22 13:45:00,46.1,41.2,30.21,ESE,107,15.0,21.0,83,0.00,,---,0.00,VWS V14.01,2013-02-22 18:45:00,
2013-02-22 13:50:00,46.6,41.7,30.20,East,84,12.0,21.0,83,0.00,,---,0.00,VWS V14.01,2013-02-22 18:50:00,
2013-02-22 13:55:00,46.9,42.0,30.20,ESE,113,18.0,21.0,83,0.00,,---,0.00,VWS V14.01,2013-02-22 18:55:00,
2013-02-22 14:00:00,46.9,42.0,30.20,ENE,78,12.0,20.0,83,0.00,,---,0.00,VWS V14.01,2013-02-22 19:00:00,
2013-02-22 14:05:00,47.0,42.4,30.20,ESE,116,12.0,20.0,84,0.00,,---,0.00,VWS V14.01,2013-02-22 19:05:00,
2013-02-22 14:10:00,47.1,42.5,30.19,ESE,112,12.0,20.0,84,0.00,,---,0.00,VWS V14.01,2013-02-22 19:10:00,
2013-02-22 14:15:00,47.3,42.7,30.19,ENE,72,9.0,20.0,84,0.00,,---,0.00,VWS V14.01,2013-02-22 19:15:00,
2013-02-22 14:20:00,47.5,42.9,30.18,SE,126,11.0,20.0,84,0.00,,---,0.00,VWS V14.01,2013-02-22 19:20:00,
2013-02-22 14:25:00,47.6,43.0,30.18,ESE,109,11.0,21.0,84,0.00,,---,0.00,VWS V14.01,2013-02-22 19:25:00,
2013-02-22 14:31:00,47.6,43.0,30.18,ESE,110,18.0,19.0,84,0.00,,---,0.00,VWS V14.01,2013-02-22 19:31:00,
2013-02-22 14:36:00,47.6,43.0,30.18,East,100,11.0,19.0,84,0.00,,---,0.00,VWS V14.01,2013-02-22 19:36:00,
2013-02-22 14:41:00,47.6,43.0,30.18,East,83,14.0,19.0,84,0.00,,---,0.00,VWS V14.01,2013-02-22 19:41:00,
2013-02-22 14:46:00,47.7,43.4,30.18,East,101,9.0,19.0,85,0.00,,---,0.00,VWS V14.01,2013-02-22 19:46:00,
2013-02-22 14:51:00,47.9,43.6,30.17,East,100,11.0,19.0,85,0.00,,---,0.00,VWS V14.01,2013-02-22 19:51:00,
2013-02-22 14:56:00,48.1,43.8,30.18,East,87,12.0,22.0,85,0.00,,---,0.00,VWS V14.01,2013-02-22 19:56:00,
2013-02-22 15:01:00,48.1,43.8,30.17,ESE,109,13.0,20.0,85,0.00,,---,0.00,VWS V14.01,2013-02-22 20:01:00,
2013-02-22 15:06:00,48.2,43.9,30.17,ESE,115,18.0,20.0,85,0.00,,---,0.00,VWS V14.01,2013-02-22 20:06:00,
2013-02-22 15:11:00,48.1,43.8,30.17,East,82,11.0,20.0,85,0.00,,---,0.00,VWS V14.01,2013-02-22 20:11:00,
2013-02-22 15:16:00,48.4,44.4,30.17,ESE,107,17.0,21.0,86,0.00,,---,0.00,VWS V14.01,2013-02-22 20:16:00,
2013-02-22 15:21:00,48.3,44.3,30.17,ENE,73,8.0,21.0,86,0.00,,---,0.00,VWS V14.01,2013-02-22 20:21:00,
2013-02-22 15:26:00,48.2,44.2,30.16,ESE,113,17.0,21.0,86,0.00,,---,0.00,VWS V14.01,2013-02-22 20:26:00,
2013-02-22 15:31:00,48.3,44.3,30.16,East,95,19.0,19.0,86,0.00,,---,0.00,VWS V14.01,2013-02-22 20:31:00,
2013-02-22 15:36:00,48.3,44.3,30.16,ESE,105,10.0,21.0,86,0.00,,---,0.00,VWS V14.01,2013-02-22 20:36:00,
2013-02-22 15:41:00,48.3,44.3,30.16,ESE,114,12.0,21.0,86,0.00,,---,0.00,VWS V14.01,2013-02-22 20:41:00,
2013-02-22 15:46:00,48.5,44.5,30.16,ESE,109,16.0,22.0,86,0.00,,---,0.00,VWS V14.01,2013-02-22 20:46:00,
2013-02-22 15:51:00,48.5,44.5,30.17,East,92,10.0,22.0,86,0.00,,---,0.00,VWS V14.01,2013-02-22 20:51:00,
2013-02-22 15:56:00,48.7,44.7,30.16,ESE,107,11.0,22.0,86,0.00,,---,0.00,VWS V14.01,2013-02-22 20:56:00,
2013-02-22 16:01:00,48.7,44.7,30.17,ENE,78,11.0,20.0,86,0.00,,---,0.00,VWS V14.01,2013-02-22 21:01:00,
2013-02-22 16:06:00,48.7,44.7,30.17,ESE,116,14.0,20.0,86,0.00,,---,0.00,VWS V14.01,2013-02-22 21:06:00,
2013-02-22 16:11:00,48.8,44.8,30.16,East,85,8.0,20.0,86,0.00,,---,0.00,VWS V14.01,2013-02-22 21:11:00,
2013-02-22 16:16:00,48.9,44.9,30.16,ESE,106,16.0,20.0,86,0.00,,---,0.00,VWS V14.01,2013-02-22 21:16:00,
2013-02-22 16:21:00,49.0,45.0,30.16,ESE,115,14.0,20.0,86,0.00,,---,0.00,VWS V14.01,2013-02-22 21:21:00,
2013-02-22 16:27:00,49.1,45.1,30.15,East,80,17.0,20.0,86,0.00,,---,0.00,VWS V14.01,2013-02-22 21:27:00,
2013-02-22 16:31:00,49.1,45.1,30.16,ESE,109,17.0,21.0,86,0.00,,---,0.00,VWS V14.01,2013-02-22 21:31:00,
2013-02-22 16:36:00,49.2,45.2,30.16,East,96,11.0,21.0,86,0.00,,---,0.00,VWS V14.01,2013-02-22 21:36:00,
2013-02-22 16:42:00,49.2,45.2,30.16,ESE,105,19.0,21.0,86,0.00,,---,0.00,VWS V14.01,2013-02-22 21:42:00,
2013-02-22 16:47:00,49.3,45.3,30.16,ESE,106,10.0,21.0,86,0.00,,---,0.00,VWS V14.01,2013-02-22 21:47:00,
2013-02-22 16:52:00,49.4,45.4,30.16,East,101,16.0,23.0,86,0.00,,---,0.00,VWS V14.01,2013-02-22 21:52:00,
2013-02-22 16:57:00,49.4,45.4,30.16,East,99,16.0,23.0,86,0.00,,---,0.00,VWS V14.01,2013-02-22 21:57:00,
2013-02-22 17:02:00,49.6,45.6,30.16,East,80,15.0,23.0,86,0.00,,---,0.00,VWS V14.01,2013-02-22 22:02:00,
2013-02-22 17:07:00,49.7,45.7,30.16,ESE,123,17.0,23.0,86,0.00,,---,0.00,VWS V14.01,2013-02-22 22:07:00,
2013-02-22 17:12:00,49.7,45.7,30.15,ESE,103,17.0,23.0,86,0.00,,---,0.00,VWS V14.01,2013-02-22 22:12:00,
2013-02-22 17:17:00,49.7,45.7,30.14,East,93,21.0,24.0,86,0.00,,---,0.00,VWS V14.01,2013-02-22 22:17:00,
2013-02-22 17:22:00,49.7,45.7,30.15,ESE,112,11.0,24.0,86,0.00,,---,0.00,VWS V14.01,2013-02-22 22:22:00,
2013-02-22 17:27:00,49.7,45.7,30.15,ESE,108,20.0,24.0,86,0.00,,---,0.00,VWS V14.01,2013-02-22 22:27:00,
2013-02-22 17:32:00,49.8,46.1,30.15,East,101,13.0,27.0,87,0.00,,---,0.00,VWS V14.01,2013-02-22 22:32:00,
2013-02-22 17:37:00,49.7,45.7,30.15,East,98,14.0,27.0,86,0.00,,---,0.00,VWS V14.01,2013-02-22 22:37:00,
2013-02-22 17:42:00,49.5,45.5,30.15,ESE,105,18.0,27.0,86,0.00,,---,0.00,VWS V14.01,2013-02-22 22:42:00,
2013-02-22 17:47:00,49.3,45.3,30.14,East,86,11.0,27.0,86,0.00,,---,0.00,VWS V14.01,2013-02-22 22:47:00,
2013-02-22 17:52:00,49.1,44.8,30.16,ENE,74,13.0,27.0,85,0.00,,---,0.00,VWS V14.01,2013-02-22 22:52:00,
2013-02-22 17:57:00,49.0,44.7,30.16,East,82,12.0,27.0,85,0.00,,---,0.00,VWS V14.01,2013-02-22 22:57:00,
2013-02-22 18:02:00,49.1,44.8,30.16,East,96,13.0,14.0,85,0.00,,---,0.00,VWS V14.01,2013-02-22 23:02:00,
2013-02-22 18:07:00,49.1,44.8,30.15,East,94,11.0,17.0,85,0.00,,---,0.00,VWS V14.01,2013-02-22 23:07:00,
2013-02-22 18:12:00,48.9,44.3,30.16,East,91,9.0,17.0,84,0.00,,---,0.00,VWS V14.01,2013-02-22 23:12:00,
2013-02-22 18:17:00,48.8,44.2,30.16,East,96,6.0,17.0,84,0.00,,---,0.00,VWS V14.01,2013-02-22 23:17:00,
2013-02-22 18:22:00,48.6,44.0,30.15,ESE,103,11.0,17.0,84,0.00,,---,0.00,VWS V14.01,2013-02-22 23:22:00,
2013-02-22 18:27:00,48.5,43.9,30.15,East,91,11.0,17.0,84,0.00,,---,0.00,VWS V14.01,2013-02-22 23:27:00,
2013-02-22 18:32:00,48.4,43.8,30.15,ESE,110,7.0,15.0,84,0.00,,---,0.00,VWS V14.01,2013-02-22 23:32:00,
2013-02-22 18:37:00,48.5,44.2,30.15,East,88,12.0,16.0,85,0.00,,---,0.00,VWS V14.01,2013-02-22 23:37:00,
2013-02-22 18:42:00,48.4,44.1,30.15,ESE,106,13.0,16.0,85,0.00,,---,0.00,VWS V14.01,2013-02-22 23:42:00,
2013-02-22 18:48:00,48.3,44.0,30.15,East,88,11.0,16.0,85,0.00,,---,0.00,VWS V14.01,2013-02-22 23:48:00,
2013-02-22 18:53:00,48.2,43.9,30.15,East,88,12.0,16.0,85,0.00,,---,0.00,VWS V14.01,2013-02-22 23:53:00,
2013-02-22 18:58:00,48.1,43.8,30.16,ENE,76,10.0,16.0,85,0.00,,---,0.00,VWS V14.01,2013-02-22 23:58:00,
2013-02-22 19:03:00,48.1,44.1,30.15,East,84,10.0,16.0,86,0.00,,---,0.00,VWS V14.01,2013-02-23 00:03:00,
2013-02-22 19:08:00,48.0,44.0,30.15,East,85,6.0,16.0,86,0.00,,---,0.00,VWS V14.01,2013-02-23 00:08:00,
2013-02-22 19:13:00,48.1,44.1,30.15,ESE,109,11.0,16.0,86,0.00,,---,0.00,VWS V14.01,2013-02-23 00:13:00,
2013-02-22 19:18:00,48.0,44.3,30.15,NE,53,10.0,16.0,87,0.00,,---,0.00,VWS V14.01,2013-02-23 00:18:00,
2013-02-22 19:23:00,47.7,43.7,30.15,ENE,76,6.0,16.0,86,0.00,,---,0.00,VWS V14.01,2013-02-23 00:23:00,
2013-02-22 19:28:00,47.7,44.0,30.15,ENE,77,12.0,15.0,87,0.00,,---,0.00,VWS V14.01,2013-02-23 00:28:00,
2013-02-22 19:33:00,47.8,44.1,30.14,ENE,62,10.0,15.0,87,0.00,,---,0.00,VWS V14.01,2013-02-23 00:33:00,
2013-02-22 19:38:00,47.7,44.0,30.15,East,79,6.0,15.0,87,0.00,,---,0.00,VWS V14.01,2013-02-23 00:38:00,
2013-02-22 19:43:00,47.6,43.9,30.15,East,101,8.0,15.0,87,0.00,,---,0.00,VWS V14.01,2013-02-23 00:43:00,
2013-02-22 19:48:00,47.4,43.7,30.15,East,89,10.0,15.0,87,0.00,,---,0.00,VWS V14.01,2013-02-23 00:48:00,
2013-02-22 19:53:00,47.5,44.1,30.15,ENE,78,6.0,15.0,88,0.00,,---,0.00,VWS V14.01,2013-02-23 00:53:00,
2013-02-22 19:58:00,47.5,44.1,30.15,ENE,65,11.0,12.0,88,0.00,,---,0.00,VWS V14.01,2013-02-23 00:58:00,
2013-02-22 20:03:00,47.4,43.7,30.15,NE,54,9.0,13.0,87,0.00,,---,0.00,VWS V14.01,2013-02-23 01:03:00,
2013-02-22 20:08:00,47.4,44.0,30.15,ENE,59,9.0,13.0,88,0.00,,---,0.00,VWS V14.01,2013-02-23 01:08:00,
2013-02-22 20:13:00,47.4,44.0,30.15,ENE,76,5.0,13.0,88,0.00,,---,0.00,VWS V14.01,2013-02-23 01:13:00,
2013-02-22 20:18:00,47.4,44.0,30.15,ENE,59,4.0,13.0,88,0.00,,---,0.00,VWS V14.01,2013-02-23 01:18:00,
2013-02-22 20:23:00,47.3,43.9,30.15,NE,55,9.0,13.0,88,0.00,,---,0.00,VWS V14.01,2013-02-23 01:23:00,
2013-02-22 20:28:00,47.3,44.2,30.15,East,80,9.0,11.0,89,0.00,,---,0.00,VWS V14.01,2013-02-23 01:28:00,
2013-02-22 20:33:00,47.3,44.2,30.14,NE,48,11.0,13.0,89,0.00,,---,0.00,VWS V14.01,2013-02-23 01:33:00,
2013-02-22 20:38:00,47.2,44.1,30.15,East,88,10.0,13.0,89,0.00,,---,0.00,VWS V14.01,2013-02-23 01:38:00,
2013-02-22 20:43:00,47.3,44.2,30.15,East,85,7.0,13.0,89,0.00,,---,0.00,VWS V14.01,2013-02-23 01:43:00,
2013-02-22 20:48:00,47.3,44.5,30.15,ENE,71,9.0,13.0,90,0.00,,---,0.00,VWS V14.01,2013-02-23 01:48:00,
2013-02-22 20:53:00,47.2,44.4,30.15,East,86,6.0,13.0,90,0.00,,---,0.00,VWS V14.01,2013-02-23 01:53:00,
2013-02-22 20:58:00,47.1,44.3,30.15,East,93,7.0,9.0,90,0.00,,---,0.00,VWS V14.01,2013-02-23 01:58:00,
2013-02-22 21:03:00,47.2,44.7,30.15,ENE,76,9.0,12.0,91,0.00,,---,0.00,VWS V14.01,2013-02-23 02:03:00,
2013-02-22 21:08:00,47.2,44.7,30.15,NE,49,7.0,13.0,91,0.00,,---,0.00,VWS V14.01,2013-02-23 02:08:00,
2013-02-22 21:13:00,47.2,44.7,30.15,East,98,6.0,13.0,91,0.00,,---,0.00,VWS V14.01,2013-02-23 02:13:00,
2013-02-22 21:19:00,47.3,44.8,30.15,ENE,71,10.0,13.0,91,0.00,,---,0.00,VWS V14.01,2013-02-23 02:19:00,
2013-02-22 21:24:00,47.3,44.8,30.14,East,97,7.0,13.0,91,0.00,,---,0.00,VWS V14.01,2013-02-23 02:24:00,
2013-02-22 21:29:00,47.4,44.9,30.12,East,88,12.0,12.0,91,0.00,,---,0.00,VWS V14.01,2013-02-23 02:29:00,
2013-02-22 21:34:00,47.6,45.4,30.12,ESE,109,9.0,17.0,92,0.00,,---,0.00,VWS V14.01,2013-02-23 02:34:00,
2013-02-22 21:39:00,47.9,45.7,30.11,ESE,106,14.0,19.0,92,0.00,,---,0.00,VWS V14.01,2013-02-23 02:39:00,
2013-02-22 21:44:00,48.1,45.9,30.12,ESE,112,9.0,20.0,92,0.00,,---,0.00,VWS V14.01,2013-02-23 02:44:00,
2013-02-22 21:49:00,48.2,46.0,30.12,East,90,12.0,20.0,92,0.00,,---,0.00,VWS V14.01,2013-02-23 02:49:00,
2013-02-22 21:54:00,48.3,46.1,30.11,East,98,10.0,20.0,92,0.00,,---,0.00,VWS V14.01,2013-02-23 02:54:00,
2013-02-22 21:59:00,48.5,46.3,30.12,East,92,11.0,11.0,92,0.00,,---,0.00,VWS V14.01,2013-02-23 02:59:00,
2013-02-22 22:04:00,48.7,46.5,30.11,ENE,76,10.0,16.0,92,0.00,,---,0.00,VWS V14.01,2013-02-23 03:04:00,
2013-02-22 22:09:00,49.0,47.1,30.12,East,96,10.0,16.0,93,0.00,,---,0.00,VWS V14.01,2013-02-23 03:09:00,
2013-02-22 22:14:00,49.2,47.3,30.11,ESE,113,11.0,16.0,93,0.00,,---,0.00,VWS V14.01,2013-02-23 03:14:00,
2013-02-22 22:19:00,49.3,47.4,30.10,East,90,6.0,16.0,93,0.00,,---,0.00,VWS V14.01,2013-02-23 03:19:00,
2013-02-22 22:24:00,49.7,47.8,30.10,ESE,103,10.0,16.0,93,0.00,,---,0.00,VWS V14.01,2013-02-23 03:24:00,
2013-02-22 22:29:00,49.9,48.0,30.10,ESE,102,10.0,17.0,93,0.00,,---,0.00,VWS V14.01,2013-02-23 03:29:00,
2013-02-22 22:34:00,50.1,48.2,30.10,East,88,10.0,17.0,93,0.00,,---,0.00,VWS V14.01,2013-02-23 03:34:00,
2013-02-22 22:39:00,50.3,48.4,30.10,East,89,4.0,17.0,93,0.00,,---,0.00,VWS V14.01,2013-02-23 03:39:00,
2013-02-22 22:44:00,50.6,48.7,30.10,East,101,11.0,17.0,93,0.00,,---,0.00,VWS V14.01,2013-02-23 03:44:00,
2013-02-22 22:49:00,50.8,48.8,30.09,East,87,9.0,17.0,93,0.00,,---,0.00,VWS V14.01,2013-02-23 03:49:00,
2013-02-22 22:54:00,50.9,49.2,30.10,ESE,105,6.0,17.0,94,0.00,,---,0.00,VWS V14.01,2013-02-23 03:54:00,
2013-02-22 22:59:00,51.0,49.3,30.09,East,101,9.0,13.0,94,0.00,,---,0.00,VWS V14.01,2013-02-23 03:59:00,
2013-02-22 23:04:00,51.1,49.4,30.09,East,81,10.0,13.0,94,0.00,,---,0.00,VWS V14.01,2013-02-23 04:04:00,
2013-02-22 23:09:00,51.3,49.6,30.09,East,98,6.0,13.0,94,0.00,,---,0.00,VWS V14.01,2013-02-23 04:09:00,
2013-02-22 23:15:00,51.4,49.7,30.08,East,96,7.0,13.0,94,0.00,,---,0.00,VWS V14.01,2013-02-23 04:15:00,
2013-02-22 23:20:00,51.5,49.8,30.08,East,95,6.0,13.0,94,0.00,,---,0.00,VWS V14.01,2013-02-23 04:20:00,
2013-02-22 23:25:00,51.5,49.8,30.07,ENE,71,5.0,13.0,94,0.00,,---,0.00,VWS V14.01,2013-02-23 04:25:00,
2013-02-22 23:30:00,51.7,50.0,30.07,East,85,5.0,11.0,94,0.00,,---,0.00,VWS V14.01,2013-02-23 04:30:00,
2013-02-22 23:35:00,51.8,50.1,30.06,East,98,5.0,11.0,94,0.00,,---,0.00,VWS V14.01,2013-02-23 04:35:00,
2013-02-22 23:40:00,51.8,50.1,30.06,East,89,9.0,13.0,94,0.00,,---,0.00,VWS V14.01,2013-02-23 04:40:00,
2013-02-22 23:45:00,51.8,50.1,30.05,East,98,9.0,13.0,94,0.00,,---,0.00,VWS V14.01,2013-02-23 04:45:00,
2013-02-22 23:50:00,52.0,50.6,30.05,ESE,107,7.0,13.0,95,0.00,,---,0.00,VWS V14.01,2013-02-23 04:50:00,
2013-02-22 23:55:00,52.1,50.7,30.05,ESE,102,6.0,13.0,95,0.00,,---,0.00,VWS V14.01,2013-02-23 04:55:00,